sensor_id;sensor_type;location;lat;lon;timestamp;P1;durP1;ratioP1;P2;durP2;ratioP2
36221;SDS011;22266;52.340;4.962;2024-03-23T00:54:37;3.50;;;3.00;;
36221;SDS011;22266;52.340;4.962;2024-03-23T00:57:03;2.25;;;2.00;;
36221;SDS011;22266;52.340;4.962;2024-03-23T00:59:29;5.00;;;2.25;;
36221;SDS011;22266;52.340;4.962;2024-03-23T01:01:56;2.00;;;2.00;;
36221;SDS011;22266;52.340;4.962;2024-03-23T01:04:22;6.75;;;2.00;;
36221;SDS011;22266;52.340;4.962;2024-03-23T01:06:47;5.00;;;2.75;;
36221;SDS011;22266;52.340;4.962;2024-03-23T01:09:13;6.00;;;5.00;;
36221;SDS011;22266;52.340;4.962;2024-03-23T01:11:39;3.75;;;3.50;;
36221;SDS011;22266;52.340;4.962;2024-03-23T01:14:05;5.00;;;3.00;;
36221;SDS011;22266;52.340;4.962;2024-03-23T01:16:31;4.75;;;3.00;;
36221;SDS011;22266;52.340;4.962;2024-03-23T01:18:57;5.50;;;2.25;;
36221;SDS011;22266;52.340;4.962;2024-03-23T01:21:23;8.50;;;3.50;;
36221;SDS011;22266;52.340;4.962;2024-03-23T01:23:48;7.00;;;5.00;;
36221;SDS011;22266;52.340;4.962;2024-03-23T01:26:14;5.00;;;5.00;;
36221;SDS011;22266;52.340;4.962;2024-03-23T01:28:40;4.00;;;2.75;;
36221;SDS011;22266;52.340;4.962;2024-03-23T01:31:05;5.75;;;5.75;;
36221;SDS011;22266;52.340;4.962;2024-03-23T01:33:31;3.00;;;3.00;;
36221;SDS011;22266;52.340;4.962;2024-03-23T01:35:57;3.00;;;3.00;;
36221;SDS011;22266;52.340;4.962;2024-03-23T01:38:22;4.50;;;4.50;;
36221;SDS011;22266;52.340;4.962;2024-03-23T01:40:48;4.00;;;3.00;;
36221;SDS011;22266;52.340;4.962;2024-03-23T01:43:13;5.25;;;4.00;;
36221;SDS011;22266;52.340;4.962;2024-03-23T01:45:39;3.00;;;3.00;;
36221;SDS011;22266;52.340;4.962;2024-03-23T01:48:05;3.00;;;3.00;;
36221;SDS011;22266;52.340;4.962;2024-03-23T01:50:31;3.00;;;1.50;;
36221;SDS011;22266;52.340;4.962;2024-03-23T01:53:04;2.00;;;1.00;;
36221;SDS011;22266;52.340;4.962;2024-03-23T01:55:32;2.00;;;2.00;;
36221;SDS011;22266;52.340;4.962;2024-03-23T01:57:58;2.00;;;2.00;;
36221;SDS011;22266;52.340;4.962;2024-03-23T02:00:24;1.00;;;1.00;;
36221;SDS011;22266;52.340;4.962;2024-03-23T02:02:50;1.25;;;1.25;;
36221;SDS011;22266;52.340;4.962;2024-03-23T02:05:16;2.75;;;2.00;;
36221;SDS011;22266;52.340;4.962;2024-03-23T02:07:42;4.00;;;1.25;;
36221;SDS011;22266;52.340;4.962;2024-03-23T02:10:10;0.50;;;0.50;;
36221;SDS011;22266;52.340;4.962;2024-03-23T02:12:38;2.00;;;1.00;;
36221;SDS011;22266;52.340;4.962;2024-03-23T02:15:04;2.25;;;1.00;;
36221;SDS011;22266;52.340;4.962;2024-03-23T02:17:30;5.00;;;2.00;;
36221;SDS011;22266;52.340;4.962;2024-03-23T02:19:58;1.00;;;1.00;;
36221;SDS011;22266;52.340;4.962;2024-03-23T02:22:24;4.75;;;1.75;;
36221;SDS011;22266;52.340;4.962;2024-03-23T02:24:50;2.25;;;0.75;;
36221;SDS011;22266;52.340;4.962;2024-03-23T02:27:15;3.00;;;2.00;;
36221;SDS011;22266;52.340;4.962;2024-03-23T02:29:41;1.00;;;1.00;;
36221;SDS011;22266;52.340;4.962;2024-03-23T02:32:06;0.00;;;0.00;;
36221;SDS011;22266;52.340;4.962;2024-03-23T02:34:34;1.00;;;1.00;;
36221;SDS011;22266;52.340;4.962;2024-03-23T02:37:00;1.00;;;1.00;;
36221;SDS011;22266;52.340;4.962;2024-03-23T02:39:26;2.25;;;2.25;;
36221;SDS011;22266;52.340;4.962;2024-03-23T02:41:51;2.50;;;1.00;;
36221;SDS011;22266;52.340;4.962;2024-03-23T02:44:17;0.00;;;0.00;;
36221;SDS011;22266;52.340;4.962;2024-03-23T02:46:43;0.00;;;0.00;;
36221;SDS011;22266;52.340;4.962;2024-03-23T02:49:08;1.75;;;0.75;;
36221;SDS011;22266;52.340;4.962;2024-03-23T02:51:34;0.25;;;0.25;;
36221;SDS011;22266;52.340;4.962;2024-03-23T02:53:59;0.50;;;0.50;;
36221;SDS011;22266;52.340;4.962;2024-03-23T02:56:25;1.75;;;0.75;;
36221;SDS011;22266;52.340;4.962;2024-03-23T02:58:51;1.00;;;0.00;;
36221;SDS011;22266;52.340;4.962;2024-03-23T03:01:16;1.00;;;0.00;;
36221;SDS011;22266;52.340;4.962;2024-03-23T03:03:42;0.00;;;0.00;;
36221;SDS011;22266;52.340;4.962;2024-03-23T03:06:07;0.00;;;0.00;;
36221;SDS011;22266;52.340;4.962;2024-03-23T03:08:33;0.00;;;0.00;;
36221;SDS011;22266;52.340;4.962;2024-03-23T03:10:59;1.00;;;1.00;;
36221;SDS011;22266;52.340;4.962;2024-03-23T03:13:24;1.75;;;0.50;;
36221;SDS011;22266;52.340;4.962;2024-03-23T03:15:50;1.00;;;1.00;;
36221;SDS011;22266;52.340;4.962;2024-03-23T03:18:16;2.00;;;0.00;;
36221;SDS011;22266;52.340;4.962;2024-03-23T03:20:41;1.00;;;0.00;;
36221;SDS011;22266;52.340;4.962;2024-03-23T03:23:07;48.00;;;35.75;;
36221;SDS011;22266;52.340;4.962;2024-03-23T03:25:33;52.00;;;41.00;;
36221;SDS011;22266;52.340;4.962;2024-03-23T03:27:59;21.75;;;18.75;;
36221;SDS011;22266;52.340;4.962;2024-03-23T03:30:25;12.00;;;9.50;;
36221;SDS011;22266;52.340;4.962;2024-03-23T03:32:54;5.75;;;3.00;;
36221;SDS011;22266;52.340;4.962;2024-03-23T03:35:20;4.00;;;2.00;;
36221;SDS011;22266;52.340;4.962;2024-03-23T03:37:46;0.50;;;0.25;;
36221;SDS011;22266;52.340;4.962;2024-03-23T03:40:12;0.00;;;0.00;;
36221;SDS011;22266;52.340;4.962;2024-03-23T03:42:40;0.75;;;0.50;;
36221;SDS011;22266;52.340;4.962;2024-03-23T03:45:06;1.00;;;1.00;;
36221;SDS011;22266;52.340;4.962;2024-03-23T03:47:32;2.50;;;1.00;;
36221;SDS011;22266;52.340;4.962;2024-03-23T03:49:58;1.00;;;1.00;;
36221;SDS011;22266;52.340;4.962;2024-03-23T03:52:23;3.50;;;1.25;;
36221;SDS011;22266;52.340;4.962;2024-03-23T03:54:49;2.25;;;1.00;;
36221;SDS011;22266;52.340;4.962;2024-03-23T03:57:14;0.00;;;0.00;;
36221;SDS011;22266;52.340;4.962;2024-03-23T03:59:40;1.00;;;1.00;;
36221;SDS011;22266;52.340;4.962;2024-03-23T04:02:06;0.75;;;0.75;;
36221;SDS011;22266;52.340;4.962;2024-03-23T04:04:31;1.25;;;0.75;;
36221;SDS011;22266;52.340;4.962;2024-03-23T04:07:00;0.00;;;0.00;;
36221;SDS011;22266;52.340;4.962;2024-03-23T04:09:27;1.75;;;0.00;;
36221;SDS011;22266;52.340;4.962;2024-03-23T04:11:53;3.25;;;1.00;;
36221;SDS011;22266;52.340;4.962;2024-03-23T04:14:18;0.50;;;0.00;;
36221;SDS011;22266;52.340;4.962;2024-03-23T04:16:44;2.00;;;0.75;;
36221;SDS011;22266;52.340;4.962;2024-03-23T04:19:10;0.50;;;0.50;;
36221;SDS011;22266;52.340;4.962;2024-03-23T04:21:37;2.50;;;0.00;;
36221;SDS011;22266;52.340;4.962;2024-03-23T04:24:03;1.50;;;1.00;;
36221;SDS011;22266;52.340;4.962;2024-03-23T04:26:29;2.75;;;1.25;;
36221;SDS011;22266;52.340;4.962;2024-03-23T04:28:55;1.00;;;1.00;;
36221;SDS011;22266;52.340;4.962;2024-03-23T04:31:20;1.00;;;1.00;;
36221;SDS011;22266;52.340;4.962;2024-03-23T04:33:47;0.25;;;0.25;;
36221;SDS011;22266;52.340;4.962;2024-03-23T04:36:12;0.00;;;0.00;;
36221;SDS011;22266;52.340;4.962;2024-03-23T04:38:38;1.00;;;0.00;;
36221;SDS011;22266;52.340;4.962;2024-03-23T04:41:04;0.00;;;0.00;;
36221;SDS011;22266;52.340;4.962;2024-03-23T04:43:29;1.00;;;1.00;;
36221;SDS011;22266;52.340;4.962;2024-03-23T04:45:55;1.75;;;1.00;;
36221;SDS011;22266;52.340;4.962;2024-03-23T04:48:21;1.00;;;1.00;;
36221;SDS011;22266;52.340;4.962;2024-03-23T04:50:48;2.00;;;1.00;;
36221;SDS011;22266;52.340;4.962;2024-03-23T04:53:20;0.75;;;0.00;;
36221;SDS011;22266;52.340;4.962;2024-03-23T04:55:45;2.00;;;1.00;;
36221;SDS011;22266;52.340;4.962;2024-03-23T04:58:11;0.25;;;0.25;;
36221;SDS011;22266;52.340;4.962;2024-03-23T05:00:37;2.00;;;0.00;;
36221;SDS011;22266;52.340;4.962;2024-03-23T05:03:02;2.25;;;0.00;;
36221;SDS011;22266;52.340;4.962;2024-03-23T05:05:29;0.00;;;0.00;;
36221;SDS011;22266;52.340;4.962;2024-03-23T05:07:55;2.00;;;0.75;;
36221;SDS011;22266;52.340;4.962;2024-03-23T05:10:21;1.50;;;1.00;;
36221;SDS011;22266;52.340;4.962;2024-03-23T05:12:46;0.50;;;0.50;;
36221;SDS011;22266;52.340;4.962;2024-03-23T05:15:12;0.00;;;0.00;;
36221;SDS011;22266;52.340;4.962;2024-03-23T05:17:37;0.00;;;0.00;;
36221;SDS011;22266;52.340;4.962;2024-03-23T05:20:03;2.00;;;2.00;;
36221;SDS011;22266;52.340;4.962;2024-03-23T05:22:38;0.00;;;0.00;;
36221;SDS011;22266;52.340;4.962;2024-03-23T05:25:05;3.25;;;1.75;;
36221;SDS011;22266;52.340;4.962;2024-03-23T05:27:31;0.75;;;0.75;;
36221;SDS011;22266;52.340;4.962;2024-03-23T05:29:57;1.00;;;0.00;;
36221;SDS011;22266;52.340;4.962;2024-03-23T05:32:23;2.25;;;1.25;;
36221;SDS011;22266;52.340;4.962;2024-03-23T05:34:49;5.25;;;2.00;;
36221;SDS011;22266;52.340;4.962;2024-03-23T05:37:21;3.25;;;1.75;;
36221;SDS011;22266;52.340;4.962;2024-03-23T05:39:47;2.00;;;1.00;;
36221;SDS011;22266;52.340;4.962;2024-03-23T05:42:18;1.00;;;1.00;;
36221;SDS011;22266;52.340;4.962;2024-03-23T05:44:44;2.50;;;2.25;;
36221;SDS011;22266;52.340;4.962;2024-03-23T05:47:10;2.75;;;1.00;;
36221;SDS011;22266;52.340;4.962;2024-03-23T05:49:38;1.75;;;1.75;;
36221;SDS011;22266;52.340;4.962;2024-03-23T05:52:04;2.75;;;2.75;;
36221;SDS011;22266;52.340;4.962;2024-03-23T05:54:29;3.75;;;2.00;;
36221;SDS011;22266;52.340;4.962;2024-03-23T05:56:55;5.75;;;4.75;;
36221;SDS011;22266;52.340;4.962;2024-03-23T05:59:21;5.50;;;2.75;;
36221;SDS011;22266;52.340;4.962;2024-03-23T06:01:47;3.50;;;2.00;;
36221;SDS011;22266;52.340;4.962;2024-03-23T06:04:13;1.50;;;1.50;;
36221;SDS011;22266;52.340;4.962;2024-03-23T06:06:41;2.00;;;2.00;;
36221;SDS011;22266;52.340;4.962;2024-03-23T06:09:07;5.00;;;3.50;;
36221;SDS011;22266;52.340;4.962;2024-03-23T06:11:33;2.00;;;2.00;;
36221;SDS011;22266;52.340;4.962;2024-03-23T06:13:58;4.50;;;2.00;;
36221;SDS011;22266;52.340;4.962;2024-03-23T06:16:24;3.50;;;3.50;;
36221;SDS011;22266;52.340;4.962;2024-03-23T06:18:50;3.00;;;1.75;;
36221;SDS011;22266;52.340;4.962;2024-03-23T06:21:16;5.00;;;4.50;;
36221;SDS011;22266;52.340;4.962;2024-03-23T06:23:42;6.50;;;4.50;;
36221;SDS011;22266;52.340;4.962;2024-03-23T06:26:08;1.00;;;1.00;;
36221;SDS011;22266;52.340;4.962;2024-03-23T06:28:34;4.75;;;2.00;;
36221;SDS011;22266;52.340;4.962;2024-03-23T06:30:59;3.00;;;2.00;;
36221;SDS011;22266;52.340;4.962;2024-03-23T06:33:25;4.50;;;4.50;;
36221;SDS011;22266;52.340;4.962;2024-03-23T06:35:51;3.50;;;2.75;;
36221;SDS011;22266;52.340;4.962;2024-03-23T06:38:17;2.00;;;2.00;;
36221;SDS011;22266;52.340;4.962;2024-03-23T06:40:44;8.00;;;4.00;;
36221;SDS011;22266;52.340;4.962;2024-03-23T06:43:15;3.00;;;2.75;;
36221;SDS011;22266;52.340;4.962;2024-03-23T06:45:41;6.00;;;5.00;;
36221;SDS011;22266;52.340;4.962;2024-03-23T06:48:07;5.00;;;3.00;;
36221;SDS011;22266;52.340;4.962;2024-03-23T06:50:33;5.00;;;5.00;;
36221;SDS011;22266;52.340;4.962;2024-03-23T06:52:59;2.75;;;2.50;;
36221;SDS011;22266;52.340;4.962;2024-03-23T06:55:27;7.00;;;4.00;;
36221;SDS011;22266;52.340;4.962;2024-03-23T06:57:53;3.50;;;3.00;;
36221;SDS011;22266;52.340;4.962;2024-03-23T07:00:19;3.00;;;3.00;;
36221;SDS011;22266;52.340;4.962;2024-03-23T07:02:45;1.00;;;1.00;;
36221;SDS011;22266;52.340;4.962;2024-03-23T07:05:10;5.00;;;5.00;;
36221;SDS011;22266;52.340;4.962;2024-03-23T07:07:37;2.50;;;2.50;;
36221;SDS011;22266;52.340;4.962;2024-03-23T07:10:04;2.00;;;2.00;;
36221;SDS011;22266;52.340;4.962;2024-03-23T07:12:31;6.00;;;2.00;;
36221;SDS011;22266;52.340;4.962;2024-03-23T07:14:56;1.50;;;1.50;;
36221;SDS011;22266;52.340;4.962;2024-03-23T07:17:22;2.00;;;2.00;;
36221;SDS011;22266;52.340;4.962;2024-03-23T07:19:48;1.75;;;1.75;;
36221;SDS011;22266;52.340;4.962;2024-03-23T07:22:13;2.00;;;2.00;;
36221;SDS011;22266;52.340;4.962;2024-03-23T07:24:42;1.00;;;1.00;;
36221;SDS011;22266;52.340;4.962;2024-03-23T07:27:08;3.75;;;2.50;;
36221;SDS011;22266;52.340;4.962;2024-03-23T07:29:37;2.00;;;1.50;;
36221;SDS011;22266;52.340;4.962;2024-03-23T07:32:02;3.50;;;1.00;;
36221;SDS011;22266;52.340;4.962;2024-03-23T07:34:28;1.00;;;1.00;;
36221;SDS011;22266;52.340;4.962;2024-03-23T07:36:54;1.00;;;1.00;;
36221;SDS011;22266;52.340;4.962;2024-03-23T07:39:19;1.00;;;1.00;;
36221;SDS011;22266;52.340;4.962;2024-03-23T07:41:45;2.00;;;1.00;;
36221;SDS011;22266;52.340;4.962;2024-03-23T07:44:11;2.00;;;1.75;;
36221;SDS011;22266;52.340;4.962;2024-03-23T07:46:36;6.00;;;1.50;;
36221;SDS011;22266;52.340;4.962;2024-03-23T07:49:03;1.00;;;1.00;;
36221;SDS011;22266;52.340;4.962;2024-03-23T07:51:29;1.25;;;1.25;;
36221;SDS011;22266;52.340;4.962;2024-03-23T07:53:55;5.00;;;1.25;;
36221;SDS011;22266;52.340;4.962;2024-03-23T07:56:21;1.00;;;1.00;;
36221;SDS011;22266;52.340;4.962;2024-03-23T07:58:48;2.75;;;2.75;;
36221;SDS011;22266;52.340;4.962;2024-03-23T08:01:14;5.75;;;2.50;;
36221;SDS011;22266;52.340;4.962;2024-03-23T08:03:42;3.25;;;2.00;;
36221;SDS011;22266;52.340;4.962;2024-03-23T08:06:14;2.25;;;2.00;;
36221;SDS011;22266;52.340;4.962;2024-03-23T08:08:50;5.00;;;1.50;;
36221;SDS011;22266;52.340;4.962;2024-03-23T08:11:28;1.75;;;1.00;;
36221;SDS011;22266;52.340;4.962;2024-03-23T08:13:54;1.00;;;1.00;;
36221;SDS011;22266;52.340;4.962;2024-03-23T08:16:21;2.00;;;2.00;;
36221;SDS011;22266;52.340;4.962;2024-03-23T08:18:46;0.25;;;0.25;;
36221;SDS011;22266;52.340;4.962;2024-03-23T08:21:12;2.50;;;1.00;;
36221;SDS011;22266;52.340;4.962;2024-03-23T08:23:38;0.75;;;0.75;;
36221;SDS011;22266;52.340;4.962;2024-03-23T08:26:05;3.00;;;1.75;;
36221;SDS011;22266;52.340;4.962;2024-03-23T08:28:35;4.50;;;2.00;;
36221;SDS011;22266;52.340;4.962;2024-03-23T08:31:07;3.00;;;1.00;;
36221;SDS011;22266;52.340;4.962;2024-03-23T08:33:34;1.50;;;0.50;;
36221;SDS011;22266;52.340;4.962;2024-03-23T08:36:01;1.00;;;0.00;;
36221;SDS011;22266;52.340;4.962;2024-03-23T08:38:30;2.75;;;2.00;;
36221;SDS011;22266;52.340;4.962;2024-03-23T08:41:02;0.50;;;0.50;;
36221;SDS011;22266;52.340;4.962;2024-03-23T08:43:30;3.00;;;1.00;;
36221;SDS011;22266;52.340;4.962;2024-03-23T08:46:06;2.25;;;1.00;;
36221;SDS011;22266;52.340;4.962;2024-03-23T08:48:36;1.00;;;1.00;;
36221;SDS011;22266;52.340;4.962;2024-03-23T08:51:04;2.25;;;1.00;;
36221;SDS011;22266;52.340;4.962;2024-03-23T08:53:30;0.75;;;0.75;;
36221;SDS011;22266;52.340;4.962;2024-03-23T08:55:56;1.50;;;1.50;;
36221;SDS011;22266;52.340;4.962;2024-03-23T08:58:23;1.00;;;1.00;;
36221;SDS011;22266;52.340;4.962;2024-03-23T09:00:53;1.75;;;1.00;;
36221;SDS011;22266;52.340;4.962;2024-03-23T09:03:26;1.75;;;1.00;;
36221;SDS011;22266;52.340;4.962;2024-03-23T09:05:52;2.00;;;2.00;;
36221;SDS011;22266;52.340;4.962;2024-03-23T09:08:18;1.00;;;1.00;;
36221;SDS011;22266;52.340;4.962;2024-03-23T09:10:44;1.00;;;1.00;;
36221;SDS011;22266;52.340;4.962;2024-03-23T09:13:10;1.75;;;1.75;;
36221;SDS011;22266;52.340;4.962;2024-03-23T09:15:37;3.00;;;2.00;;
36221;SDS011;22266;52.340;4.962;2024-03-23T09:18:11;1.00;;;1.00;;
36221;SDS011;22266;52.340;4.962;2024-03-23T09:20:37;2.00;;;2.00;;
36221;SDS011;22266;52.340;4.962;2024-03-23T09:23:02;3.25;;;1.50;;
36221;SDS011;22266;52.340;4.962;2024-03-23T09:25:28;2.00;;;0.75;;
36221;SDS011;22266;52.340;4.962;2024-03-23T09:27:54;1.00;;;1.00;;
36221;SDS011;22266;52.340;4.962;2024-03-23T09:30:20;4.50;;;1.00;;
36221;SDS011;22266;52.340;4.962;2024-03-23T09:32:45;2.00;;;1.75;;
36221;SDS011;22266;52.340;4.962;2024-03-23T09:35:12;3.00;;;1.00;;
36221;SDS011;22266;52.340;4.962;2024-03-23T09:37:38;3.00;;;2.00;;
36221;SDS011;22266;52.340;4.962;2024-03-23T09:40:05;2.75;;;2.75;;
36221;SDS011;22266;52.340;4.962;2024-03-23T09:42:34;1.00;;;0.00;;
36221;SDS011;22266;52.340;4.962;2024-03-23T09:45:00;1.50;;;1.50;;
36221;SDS011;22266;52.340;4.962;2024-03-23T09:47:26;1.00;;;1.00;;
36221;SDS011;22266;52.340;4.962;2024-03-23T09:49:52;1.00;;;1.00;;
36221;SDS011;22266;52.340;4.962;2024-03-23T09:52:19;3.50;;;2.00;;
36221;SDS011;22266;52.340;4.962;2024-03-23T09:54:45;3.00;;;3.00;;
36221;SDS011;22266;52.340;4.962;2024-03-23T09:57:11;1.25;;;1.25;;
36221;SDS011;22266;52.340;4.962;2024-03-23T09:59:36;2.00;;;1.00;;
36221;SDS011;22266;52.340;4.962;2024-03-23T10:02:02;1.25;;;1.25;;
36221;SDS011;22266;52.340;4.962;2024-03-23T10:04:37;0.00;;;0.00;;
36221;SDS011;22266;52.340;4.962;2024-03-23T10:07:10;2.75;;;1.00;;
36221;SDS011;22266;52.340;4.962;2024-03-23T10:09:46;2.25;;;1.75;;
36221;SDS011;22266;52.340;4.962;2024-03-23T10:12:18;2.00;;;1.25;;
36221;SDS011;22266;52.340;4.962;2024-03-23T10:14:44;1.00;;;1.00;;
36221;SDS011;22266;52.340;4.962;2024-03-23T10:17:11;1.25;;;1.25;;
36221;SDS011;22266;52.340;4.962;2024-03-23T10:19:43;1.00;;;1.00;;
36221;SDS011;22266;52.340;4.962;2024-03-23T10:22:09;1.00;;;1.00;;
36221;SDS011;22266;52.340;4.962;2024-03-23T10:24:38;6.00;;;1.75;;
36221;SDS011;22266;52.340;4.962;2024-03-23T10:27:04;2.00;;;2.00;;
36221;SDS011;22266;52.340;4.962;2024-03-23T10:29:29;1.00;;;1.00;;
36221;SDS011;22266;52.340;4.962;2024-03-23T10:32:07;9.00;;;2.00;;
36221;SDS011;22266;52.340;4.962;2024-03-23T10:34:39;2.00;;;2.00;;
36221;SDS011;22266;52.340;4.962;2024-03-23T10:37:06;3.00;;;2.00;;
36221;SDS011;22266;52.340;4.962;2024-03-23T10:39:33;1.75;;;1.00;;
36221;SDS011;22266;52.340;4.962;2024-03-23T10:42:01;1.25;;;1.25;;
36221;SDS011;22266;52.340;4.962;2024-03-23T10:44:31;1.75;;;1.00;;
36221;SDS011;22266;52.340;4.962;2024-03-23T10:46:58;1.00;;;1.00;;
36221;SDS011;22266;52.340;4.962;2024-03-23T10:49:25;1.00;;;1.00;;
36221;SDS011;22266;52.340;4.962;2024-03-23T10:51:53;0.25;;;0.25;;
36221;SDS011;22266;52.340;4.962;2024-03-23T10:54:19;2.00;;;2.00;;
36221;SDS011;22266;52.340;4.962;2024-03-23T10:56:46;3.00;;;1.75;;
36221;SDS011;22266;52.340;4.962;2024-03-23T10:59:13;1.25;;;1.25;;
36221;SDS011;22266;52.340;4.962;2024-03-23T11:04:32;4.50;;;1.00;;
36221;SDS011;22266;52.340;4.962;2024-03-23T11:09:51;0.25;;;0.25;;
36221;SDS011;22266;52.340;4.962;2024-03-23T11:14:50;3.00;;;1.00;;
36221;SDS011;22266;52.340;4.962;2024-03-23T11:17:20;1.75;;;1.75;;
36221;SDS011;22266;52.340;4.962;2024-03-23T11:25:20;1.50;;;1.00;;
36221;SDS011;22266;52.340;4.962;2024-03-23T11:27:47;1.00;;;1.00;;
36221;SDS011;22266;52.340;4.962;2024-03-23T11:30:23;2.25;;;1.00;;
36221;SDS011;22266;52.340;4.962;2024-03-23T11:32:55;4.00;;;1.75;;
36221;SDS011;22266;52.340;4.962;2024-03-23T11:35:29;1.50;;;0.75;;
36221;SDS011;22266;52.340;4.962;2024-03-23T11:38:11;1.50;;;0.00;;
36221;SDS011;22266;52.340;4.962;2024-03-23T11:40:39;3.50;;;1.75;;
36221;SDS011;22266;52.340;4.962;2024-03-23T11:43:09;1.00;;;1.00;;
36221;SDS011;22266;52.340;4.962;2024-03-23T11:45:48;1.00;;;1.00;;
36221;SDS011;22266;52.340;4.962;2024-03-23T11:48:20;2.00;;;0.25;;
36221;SDS011;22266;52.340;4.962;2024-03-23T11:50:54;1.25;;;1.25;;
36221;SDS011;22266;52.340;4.962;2024-03-23T11:53:26;0.00;;;0.00;;
36221;SDS011;22266;52.340;4.962;2024-03-23T11:55:59;2.00;;;1.00;;
36221;SDS011;22266;52.340;4.962;2024-03-23T11:58:26;3.00;;;1.00;;
36221;SDS011;22266;52.340;4.962;2024-03-23T12:00:55;2.00;;;2.00;;
36221;SDS011;22266;52.340;4.962;2024-03-23T12:03:25;3.00;;;1.50;;
36221;SDS011;22266;52.340;4.962;2024-03-23T12:05:54;1.75;;;1.00;;
36221;SDS011;22266;52.340;4.962;2024-03-23T12:13:40;1.00;;;0.00;;
36221;SDS011;22266;52.340;4.962;2024-03-23T12:16:18;3.00;;;1.00;;
36221;SDS011;22266;52.340;4.962;2024-03-23T12:18:46;2.50;;;1.00;;
36221;SDS011;22266;52.340;4.962;2024-03-23T12:21:16;0.00;;;0.00;;
36221;SDS011;22266;52.340;4.962;2024-03-23T12:23:43;1.75;;;1.00;;
36221;SDS011;22266;52.340;4.962;2024-03-23T12:26:13;3.00;;;0.25;;
36221;SDS011;22266;52.340;4.962;2024-03-23T12:28:39;2.25;;;2.25;;
36221;SDS011;22266;52.340;4.962;2024-03-23T12:31:05;2.00;;;1.25;;
36221;SDS011;22266;52.340;4.962;2024-03-23T12:33:31;0.00;;;0.00;;
36221;SDS011;22266;52.340;4.962;2024-03-23T12:35:56;0.50;;;0.00;;
36221;SDS011;22266;52.340;4.962;2024-03-23T12:38:22;0.00;;;0.00;;
36221;SDS011;22266;52.340;4.962;2024-03-23T12:40:48;1.00;;;1.00;;
36221;SDS011;22266;52.340;4.962;2024-03-23T12:43:15;2.00;;;1.00;;
36221;SDS011;22266;52.340;4.962;2024-03-23T12:45:45;3.00;;;0.75;;
36221;SDS011;22266;52.340;4.962;2024-03-23T12:48:11;1.00;;;1.00;;
36221;SDS011;22266;52.340;4.962;2024-03-23T12:50:37;0.25;;;0.25;;
36221;SDS011;22266;52.340;4.962;2024-03-23T12:53:03;1.00;;;1.00;;
36221;SDS011;22266;52.340;4.962;2024-03-23T12:55:29;1.00;;;1.00;;
36221;SDS011;22266;52.340;4.962;2024-03-23T12:57:54;0.75;;;0.75;;
36221;SDS011;22266;52.340;4.962;2024-03-23T13:00:20;1.75;;;0.75;;
36221;SDS011;22266;52.340;4.962;2024-03-23T13:02:45;3.00;;;1.00;;
36221;SDS011;22266;52.340;4.962;2024-03-23T13:05:11;0.25;;;0.25;;
36221;SDS011;22266;52.340;4.962;2024-03-23T13:07:37;1.00;;;1.00;;
36221;SDS011;22266;52.340;4.962;2024-03-23T13:10:04;1.50;;;0.50;;
36221;SDS011;22266;52.340;4.962;2024-03-23T13:12:31;1.00;;;0.00;;
36221;SDS011;22266;52.340;4.962;2024-03-23T13:14:58;0.00;;;0.00;;
36221;SDS011;22266;52.340;4.962;2024-03-23T13:17:24;1.00;;;0.00;;
36221;SDS011;22266;52.340;4.962;2024-03-23T13:19:50;0.00;;;0.00;;
36221;SDS011;22266;52.340;4.962;2024-03-23T13:22:16;0.50;;;0.50;;
36221;SDS011;22266;52.340;4.962;2024-03-23T13:24:41;0.00;;;0.00;;
36221;SDS011;22266;52.340;4.962;2024-03-23T13:27:08;0.25;;;0.25;;
36221;SDS011;22266;52.340;4.962;2024-03-23T13:29:34;0.75;;;0.75;;
36221;SDS011;22266;52.340;4.962;2024-03-23T13:32:00;1.00;;;1.00;;
36221;SDS011;22266;52.340;4.962;2024-03-23T13:34:26;0.75;;;0.75;;
36221;SDS011;22266;52.340;4.962;2024-03-23T13:36:52;1.00;;;1.00;;
36221;SDS011;22266;52.340;4.962;2024-03-23T13:39:17;1.00;;;1.00;;
36221;SDS011;22266;52.340;4.962;2024-03-23T13:41:44;1.00;;;1.00;;
36221;SDS011;22266;52.340;4.962;2024-03-23T13:44:11;0.75;;;0.50;;
36221;SDS011;22266;52.340;4.962;2024-03-23T13:46:38;2.50;;;0.75;;
36221;SDS011;22266;52.340;4.962;2024-03-23T13:49:07;0.75;;;0.00;;
36221;SDS011;22266;52.340;4.962;2024-03-23T13:51:33;1.00;;;1.00;;
36221;SDS011;22266;52.340;4.962;2024-03-23T13:53:58;2.00;;;1.00;;
36221;SDS011;22266;52.340;4.962;2024-03-23T13:56:27;1.25;;;1.25;;
36221;SDS011;22266;52.340;4.962;2024-03-23T13:58:57;1.50;;;1.25;;
36221;SDS011;22266;52.340;4.962;2024-03-23T14:01:23;0.25;;;0.00;;
36221;SDS011;22266;52.340;4.962;2024-03-23T14:03:49;3.00;;;2.00;;
36221;SDS011;22266;52.340;4.962;2024-03-23T14:06:15;1.00;;;0.25;;
36221;SDS011;22266;52.340;4.962;2024-03-23T14:08:41;2.00;;;0.50;;
36221;SDS011;22266;52.340;4.962;2024-03-23T14:11:07;1.00;;;1.00;;
36221;SDS011;22266;52.340;4.962;2024-03-23T14:13:36;1.50;;;1.00;;
36221;SDS011;22266;52.340;4.962;2024-03-23T14:16:03;2.00;;;1.00;;
36221;SDS011;22266;52.340;4.962;2024-03-23T14:18:29;1.75;;;1.75;;
36221;SDS011;22266;52.340;4.962;2024-03-23T14:20:59;1.50;;;1.50;;
36221;SDS011;22266;52.340;4.962;2024-03-23T14:23:25;3.25;;;0.25;;
36221;SDS011;22266;52.340;4.962;2024-03-23T14:25:57;2.00;;;0.00;;
36221;SDS011;22266;52.340;4.962;2024-03-23T14:28:23;0.25;;;0.25;;
36221;SDS011;22266;52.340;4.962;2024-03-23T14:30:50;1.00;;;1.00;;
36221;SDS011;22266;52.340;4.962;2024-03-23T14:33:16;1.75;;;1.75;;
36221;SDS011;22266;52.340;4.962;2024-03-23T14:35:43;1.00;;;0.25;;
36221;SDS011;22266;52.340;4.962;2024-03-23T14:38:16;1.00;;;0.00;;
36221;SDS011;22266;52.340;4.962;2024-03-23T14:40:42;0.00;;;0.00;;
36221;SDS011;22266;52.340;4.962;2024-03-23T14:43:07;1.75;;;0.00;;
36221;SDS011;22266;52.340;4.962;2024-03-23T14:45:33;1.00;;;0.00;;
36221;SDS011;22266;52.340;4.962;2024-03-23T14:47:59;0.00;;;0.00;;
36221;SDS011;22266;52.340;4.962;2024-03-23T14:50:25;1.00;;;1.00;;
36221;SDS011;22266;52.340;4.962;2024-03-23T14:52:51;1.75;;;1.75;;
36221;SDS011;22266;52.340;4.962;2024-03-23T14:55:17;0.00;;;0.00;;
36221;SDS011;22266;52.340;4.962;2024-03-23T14:57:43;2.50;;;1.00;;
36221;SDS011;22266;52.340;4.962;2024-03-23T15:00:08;2.50;;;2.25;;
36221;SDS011;22266;52.340;4.962;2024-03-23T15:02:37;1.75;;;0.50;;
36221;SDS011;22266;52.340;4.962;2024-03-23T15:05:04;0.25;;;0.00;;
36221;SDS011;22266;52.340;4.962;2024-03-23T15:07:30;0.00;;;0.00;;
36221;SDS011;22266;52.340;4.962;2024-03-23T15:09:56;0.00;;;0.00;;
36221;SDS011;22266;52.340;4.962;2024-03-23T15:12:22;1.00;;;1.00;;
36221;SDS011;22266;52.340;4.962;2024-03-23T15:14:48;1.00;;;1.00;;
36221;SDS011;22266;52.340;4.962;2024-03-23T15:17:14;1.00;;;1.00;;
36221;SDS011;22266;52.340;4.962;2024-03-23T15:19:40;1.50;;;1.00;;
36221;SDS011;22266;52.340;4.962;2024-03-23T15:22:08;2.75;;;0.00;;
36221;SDS011;22266;52.340;4.962;2024-03-23T15:24:34;0.25;;;0.25;;
36221;SDS011;22266;52.340;4.962;2024-03-23T15:27:01;1.75;;;0.00;;
36221;SDS011;22266;52.340;4.962;2024-03-23T15:29:28;0.00;;;0.00;;
36221;SDS011;22266;52.340;4.962;2024-03-23T15:31:54;1.50;;;0.00;;
36221;SDS011;22266;52.340;4.962;2024-03-23T15:34:19;1.00;;;1.00;;
36221;SDS011;22266;52.340;4.962;2024-03-23T15:36:50;1.00;;;1.00;;
36221;SDS011;22266;52.340;4.962;2024-03-23T15:39:18;0.00;;;0.00;;
36221;SDS011;22266;52.340;4.962;2024-03-23T15:41:45;0.25;;;0.25;;
36221;SDS011;22266;52.340;4.962;2024-03-23T15:44:11;0.50;;;0.00;;
36221;SDS011;22266;52.340;4.962;2024-03-23T15:46:37;0.75;;;0.75;;
36221;SDS011;22266;52.340;4.962;2024-03-23T15:49:02;1.00;;;0.00;;
36221;SDS011;22266;52.340;4.962;2024-03-23T15:51:29;0.75;;;0.75;;
36221;SDS011;22266;52.340;4.962;2024-03-23T15:54:00;0.00;;;0.00;;
36221;SDS011;22266;52.340;4.962;2024-03-23T15:56:28;0.50;;;0.50;;
36221;SDS011;22266;52.340;4.962;2024-03-23T15:58:54;1.25;;;1.00;;